Terminal Aerodrome Forecast
Issued by NWS

Home | Current Version | Previous Version | Text Only | Print | Product List | Glossary On
Versions: 1 2 3 4 5 6 7 8 9 10 11 12 13 14 15 16 17 18 19 20 21 22 23 24 25 26 27 28 29 30 31 32 33
000
FTUS45 KBOI 290520
TAFTWF
TAF
KTWF 290520Z 2906/3006 15010KT P6SM VCSH BKN250
     FM291500 20010KT P6SM VCTS SCT120CB BKN250
     FM291800 30012KT P6SM FEW120 BKN250
     FM300300 21009KT P6SM VCSH FEW120=

USA.gov is the U.S. government's official web portal to all federal, state and local government web resources and services.